sensor_id;sensor_type;location;lat;lon;timestamp;pressure;altitude;pressure_sealevel;temperature;humidity
13041;BME280;6587;42.728;23.288;2023-11-21T00:01:17;95207.03;;;2.45;79.91
13041;BME280;6587;42.728;23.288;2023-11-21T00:03:44;95199.03;;;2.53;79.11
13041;BME280;6587;42.728;23.288;2023-11-21T00:06:10;95215.53;;;2.54;78.66
13041;BME280;6587;42.728;23.288;2023-11-21T00:08:37;95213.28;;;2.40;78.88
13041;BME280;6587;42.728;23.288;2023-11-21T00:11:04;95213.50;;;2.35;79.13
13041;BME280;6587;42.728;23.288;2023-11-21T00:13:31;95220.94;;;2.45;78.89
13041;BME280;6587;42.728;23.288;2023-11-21T00:15:59;95214.56;;;2.58;79.04
13041;BME280;6587;42.728;23.288;2023-11-21T00:18:27;95216.97;;;2.51;79.05
13041;BME280;6587;42.728;23.288;2023-11-21T00:20:54;95216.34;;;2.30;79.46
13041;BME280;6587;42.728;23.288;2023-11-21T00:23:21;95215.03;;;2.36;79.16
13041;BME280;6587;42.728;23.288;2023-11-21T00:25:48;95211.28;;;2.49;78.67
13041;BME280;6587;42.728;23.288;2023-11-21T00:28:14;95211.06;;;2.54;78.87
13041;BME280;6587;42.728;23.288;2023-11-21T00:30:41;95207.72;;;2.30;79.17
13041;BME280;6587;42.728;23.288;2023-11-21T00:33:08;95203.66;;;2.32;79.18
13041;BME280;6587;42.728;23.288;2023-11-21T00:35:37;95208.78;;;2.41;79.03
13041;BME280;6587;42.728;23.288;2023-11-21T00:38:03;95205.16;;;2.45;79.45
13041;BME280;6587;42.728;23.288;2023-11-21T00:40:32;95209.50;;;2.65;78.11
13041;BME280;6587;42.728;23.288;2023-11-21T00:43:00;95209.63;;;2.57;78.89
13041;BME280;6587;42.728;23.288;2023-11-21T00:45:27;95211.41;;;2.41;78.56
13041;BME280;6587;42.728;23.288;2023-11-21T00:47:54;95212.75;;;2.35;78.83
13041;BME280;6587;42.728;23.288;2023-11-21T00:50:21;95208.19;;;2.59;78.55
13041;BME280;6587;42.728;23.288;2023-11-21T00:52:50;95213.72;;;2.30;78.27
13041;BME280;6587;42.728;23.288;2023-11-21T00:55:17;95205.00;;;2.14;79.18
13041;BME280;6587;42.728;23.288;2023-11-21T00:57:44;95196.69;;;2.12;79.38
13041;BME280;6587;42.728;23.288;2023-11-21T01:00:12;95195.69;;;2.17;79.55
13041;BME280;6587;42.728;23.288;2023-11-21T01:02:42;95194.06;;;2.12;79.63
13041;BME280;6587;42.728;23.288;2023-11-21T01:05:10;95186.50;;;2.11;79.73
13041;BME280;6587;42.728;23.288;2023-11-21T01:07:37;95189.47;;;2.09;79.91
13041;BME280;6587;42.728;23.288;2023-11-21T01:10:06;95192.53;;;2.11;80.05
13041;BME280;6587;42.728;23.288;2023-11-21T01:12:34;95189.44;;;2.21;80.13
13041;BME280;6587;42.728;23.288;2023-11-21T01:15:01;95189.44;;;2.33;79.14
13041;BME280;6587;42.728;23.288;2023-11-21T01:17:28;95191.75;;;2.35;79.36
13041;BME280;6587;42.728;23.288;2023-11-21T01:19:55;95194.25;;;2.31;79.02
13041;BME280;6587;42.728;23.288;2023-11-21T01:22:23;95196.97;;;2.23;79.29
13041;BME280;6587;42.728;23.288;2023-11-21T01:24:53;95198.44;;;2.08;78.98
13041;BME280;6587;42.728;23.288;2023-11-21T01:27:21;95192.53;;;1.87;80.28
13041;BME280;6587;42.728;23.288;2023-11-21T01:29:48;95190.13;;;1.82;80.01
13041;BME280;6587;42.728;23.288;2023-11-21T01:32:19;95188.56;;;2.05;79.67
13041;BME280;6587;42.728;23.288;2023-11-21T01:34:45;95188.56;;;2.05;79.23
13041;BME280;6587;42.728;23.288;2023-11-21T01:37:12;95198.00;;;1.82;79.09
13041;BME280;6587;42.728;23.288;2023-11-21T01:39:39;95198.56;;;1.88;79.10
13041;BME280;6587;42.728;23.288;2023-11-21T01:42:06;95199.09;;;1.81;79.15
13041;BME280;6587;42.728;23.288;2023-11-21T01:44:35;95193.06;;;1.81;79.03
13041;BME280;6587;42.728;23.288;2023-11-21T01:47:02;95179.63;;;1.94;78.89
13041;BME280;6587;42.728;23.288;2023-11-21T01:49:32;95176.34;;;1.73;78.89
13041;BME280;6587;42.728;23.288;2023-11-21T01:52:00;95190.44;;;1.56;79.11
13041;BME280;6587;42.728;23.288;2023-11-21T01:54:28;95181.19;;;1.83;78.87
13041;BME280;6587;42.728;23.288;2023-11-21T01:56:57;95192.97;;;1.65;78.58
13041;BME280;6587;42.728;23.288;2023-11-21T01:59:33;95194.81;;;1.64;78.74
13041;BME280;6587;42.728;23.288;2023-11-21T02:02:04;95193.63;;;1.62;79.04
13041;BME280;6587;42.728;23.288;2023-11-21T02:04:32;95194.59;;;1.45;79.11
13041;BME280;6587;42.728;23.288;2023-11-21T02:06:59;95191.44;;;1.76;78.95
13041;BME280;6587;42.728;23.288;2023-11-21T02:09:27;95185.75;;;1.74;78.66
13041;BME280;6587;42.728;23.288;2023-11-21T02:11:55;95178.19;;;1.60;78.81
13041;BME280;6587;42.728;23.288;2023-11-21T02:14:23;95189.91;;;1.87;78.66
13041;BME280;6587;42.728;23.288;2023-11-21T02:16:51;95191.66;;;1.83;78.34
13041;BME280;6587;42.728;23.288;2023-11-21T02:19:21;95188.03;;;1.63;78.79
13041;BME280;6587;42.728;23.288;2023-11-21T02:21:52;95183.50;;;1.28;79.83
13041;BME280;6587;42.728;23.288;2023-11-21T02:24:21;95177.19;;;1.29;80.16
13041;BME280;6587;42.728;23.288;2023-11-21T02:26:49;95183.72;;;1.35;80.42
13041;BME280;6587;42.728;23.288;2023-11-21T02:29:17;95189.44;;;1.49;80.32
13041;BME280;6587;42.728;23.288;2023-11-21T02:31:45;95178.31;;;1.64;80.06
13041;BME280;6587;42.728;23.288;2023-11-21T02:34:15;95177.66;;;1.67;80.09
13041;BME280;6587;42.728;23.288;2023-11-21T02:36:42;95174.84;;;1.72;79.95
13041;BME280;6587;42.728;23.288;2023-11-21T02:39:09;95171.53;;;1.51;80.27
13041;BME280;6587;42.728;23.288;2023-11-21T02:41:38;95184.19;;;1.37;80.27
13041;BME280;6587;42.728;23.288;2023-11-21T02:44:05;95180.13;;;1.27;80.62
13041;BME280;6587;42.728;23.288;2023-11-21T02:46:33;95173.53;;;1.09;81.84
13041;BME280;6587;42.728;23.288;2023-11-21T02:49:00;95174.44;;;1.25;81.73
13041;BME280;6587;42.728;23.288;2023-11-21T02:51:28;95168.56;;;1.40;81.33
13041;BME280;6587;42.728;23.288;2023-11-21T02:53:55;95172.50;;;1.58;81.35
13041;BME280;6587;42.728;23.288;2023-11-21T02:56:24;95168.47;;;1.61;81.29
13041;BME280;6587;42.728;23.288;2023-11-21T02:58:55;95176.47;;;1.77;81.67
13041;BME280;6587;42.728;23.288;2023-11-21T03:01:23;95177.88;;;1.74;80.69
13041;BME280;6587;42.728;23.288;2023-11-21T03:03:50;95172.19;;;1.36;80.96
13041;BME280;6587;42.728;23.288;2023-11-21T03:06:18;95172.19;;;1.36;81.27
13041;BME280;6587;42.728;23.288;2023-11-21T03:08:46;95172.50;;;1.34;81.47
13041;BME280;6587;42.728;23.288;2023-11-21T03:11:14;95179.06;;;1.52;81.60
13041;BME280;6587;42.728;23.288;2023-11-21T03:13:41;95178.97;;;1.73;80.94
13041;BME280;6587;42.728;23.288;2023-11-21T03:16:10;95174.91;;;1.76;80.28
13041;BME280;6587;42.728;23.288;2023-11-21T03:18:37;95172.84;;;1.93;79.83
13041;BME280;6587;42.728;23.288;2023-11-21T03:21:04;95176.13;;;1.90;79.48
13041;BME280;6587;42.728;23.288;2023-11-21T03:23:33;95175.38;;;1.66;79.81
13041;BME280;6587;42.728;23.288;2023-11-21T03:26:00;95175.34;;;1.41;80.50
13041;BME280;6587;42.728;23.288;2023-11-21T03:28:27;95178.53;;;1.59;80.20
13041;BME280;6587;42.728;23.288;2023-11-21T03:30:56;95181.59;;;1.73;79.91
13041;BME280;6587;42.728;23.288;2023-11-21T03:33:24;95185.88;;;1.21;80.54
13041;BME280;6587;42.728;23.288;2023-11-21T03:35:51;95179.34;;;1.27;80.89
13041;BME280;6587;42.728;23.288;2023-11-21T03:38:19;95172.09;;;1.69;80.72
13041;BME280;6587;42.728;23.288;2023-11-21T03:40:46;95176.44;;;1.52;80.25
13041;BME280;6587;42.728;23.288;2023-11-21T03:43:13;95176.53;;;1.32;80.38
13041;BME280;6587;42.728;23.288;2023-11-21T03:45:39;95166.69;;;1.29;80.94
13041;BME280;6587;42.728;23.288;2023-11-21T03:48:06;95164.72;;;1.26;80.97
13041;BME280;6587;42.728;23.288;2023-11-21T03:50:38;95153.28;;;1.42;80.85
13041;BME280;6587;42.728;23.288;2023-11-21T03:53:06;95160.16;;;1.59;80.23
13041;BME280;6587;42.728;23.288;2023-11-21T03:55:32;95159.28;;;1.43;80.45
13041;BME280;6587;42.728;23.288;2023-11-21T03:57:59;95165.63;;;1.42;80.08
13041;BME280;6587;42.728;23.288;2023-11-21T04:00:27;95162.91;;;1.75;79.99
13041;BME280;6587;42.728;23.288;2023-11-21T04:02:54;95160.16;;;1.47;79.70
13041;BME280;6587;42.728;23.288;2023-11-21T04:05:21;95161.94;;;1.55;79.62
13041;BME280;6587;42.728;23.288;2023-11-21T04:07:50;95157.75;;;1.30;79.87
13041;BME280;6587;42.728;23.288;2023-11-21T04:10:17;95147.25;;;1.30;79.94
13041;BME280;6587;42.728;23.288;2023-11-21T04:12:44;95148.78;;;1.31;79.79
13041;BME280;6587;42.728;23.288;2023-11-21T04:15:12;95148.56;;;1.48;79.50
13041;BME280;6587;42.728;23.288;2023-11-21T04:17:39;95159.06;;;1.48;79.48
13041;BME280;6587;42.728;23.288;2023-11-21T04:20:07;95158.66;;;1.58;79.67
13041;BME280;6587;42.728;23.288;2023-11-21T04:22:36;95160.38;;;1.54;79.66
13041;BME280;6587;42.728;23.288;2023-11-21T04:25:08;95163.44;;;1.68;79.74
13041;BME280;6587;42.728;23.288;2023-11-21T04:27:35;95161.38;;;1.74;79.22
13041;BME280;6587;42.728;23.288;2023-11-21T04:30:02;95166.41;;;1.67;78.96
13041;BME280;6587;42.728;23.288;2023-11-21T04:32:29;95154.69;;;1.52;79.28
13041;BME280;6587;42.728;23.288;2023-11-21T04:34:56;95161.44;;;1.41;79.45
13041;BME280;6587;42.728;23.288;2023-11-21T04:37:23;95162.34;;;1.33;79.87
13041;BME280;6587;42.728;23.288;2023-11-21T04:39:50;95152.72;;;1.49;80.03
13041;BME280;6587;42.728;23.288;2023-11-21T04:42:18;95160.06;;;1.55;79.66
13041;BME280;6587;42.728;23.288;2023-11-21T04:44:45;95159.03;;;1.24;79.74
13041;BME280;6587;42.728;23.288;2023-11-21T04:47:12;95158.81;;;1.41;80.16
13041;BME280;6587;42.728;23.288;2023-11-21T04:49:42;95165.63;;;0.97;80.12
13041;BME280;6587;42.728;23.288;2023-11-21T04:52:09;95168.09;;;0.61;81.29
13041;BME280;6587;42.728;23.288;2023-11-21T04:54:36;95167.84;;;0.75;81.93
13041;BME280;6587;42.728;23.288;2023-11-21T04:57:03;95167.91;;;0.87;82.28
13041;BME280;6587;42.728;23.288;2023-11-21T04:59:31;95171.31;;;0.99;82.25
13041;BME280;6587;42.728;23.288;2023-11-21T05:01:58;95169.84;;;1.22;82.34
13041;BME280;6587;42.728;23.288;2023-11-21T05:04:25;95159.50;;;1.50;81.99
13041;BME280;6587;42.728;23.288;2023-11-21T05:06:52;95164.56;;;1.55;81.23
13041;BME280;6587;42.728;23.288;2023-11-21T05:09:19;95161.81;;;1.51;81.05
13041;BME280;6587;42.728;23.288;2023-11-21T05:11:47;95157.72;;;1.18;81.29
13041;BME280;6587;42.728;23.288;2023-11-21T05:14:14;95148.13;;;1.34;81.46
13041;BME280;6587;42.728;23.288;2023-11-21T05:16:42;95150.75;;;1.46;81.38
13041;BME280;6587;42.728;23.288;2023-11-21T05:19:09;95152.50;;;1.30;81.64
13041;BME280;6587;42.728;23.288;2023-11-21T05:21:38;95147.50;;;1.61;81.50
13041;BME280;6587;42.728;23.288;2023-11-21T05:24:06;95150.78;;;1.70;81.29
13041;BME280;6587;42.728;23.288;2023-11-21T05:26:32;95167.16;;;1.67;80.76
13041;BME280;6587;42.728;23.288;2023-11-21T05:28:59;95177.00;;;1.70;80.52
13041;BME280;6587;42.728;23.288;2023-11-21T05:31:26;95171.09;;;1.73;80.54
13041;BME280;6587;42.728;23.288;2023-11-21T05:33:55;95179.75;;;1.74;80.40
13041;BME280;6587;42.728;23.288;2023-11-21T05:36:22;95178.19;;;1.73;80.38
13041;BME280;6587;42.728;23.288;2023-11-21T05:38:49;95175.47;;;2.17;80.49
13041;BME280;6587;42.728;23.288;2023-11-21T05:41:16;95174.28;;;1.91;79.77
13041;BME280;6587;42.728;23.288;2023-11-21T05:43:43;95175.03;;;1.79;79.97
13041;BME280;6587;42.728;23.288;2023-11-21T05:46:09;95169.34;;;1.89;79.93
13041;BME280;6587;42.728;23.288;2023-11-21T05:48:36;95178.22;;;1.85;79.72
13041;BME280;6587;42.728;23.288;2023-11-21T05:51:06;95169.78;;;1.91;79.82
13041;BME280;6587;42.728;23.288;2023-11-21T05:53:33;95163.44;;;1.92;79.78
13041;BME280;6587;42.728;23.288;2023-11-21T05:56:01;95168.81;;;1.96;79.87
13041;BME280;6587;42.728;23.288;2023-11-21T05:58:29;95167.72;;;1.85;80.08
13041;BME280;6587;42.728;23.288;2023-11-21T06:00:56;95168.56;;;2.01;79.83
13041;BME280;6587;42.728;23.288;2023-11-21T06:03:23;95179.06;;;2.25;79.75
13041;BME280;6587;42.728;23.288;2023-11-21T06:05:50;95179.28;;;2.20;79.35
13041;BME280;6587;42.728;23.288;2023-11-21T06:08:18;95177.63;;;2.15;79.89
13041;BME280;6587;42.728;23.288;2023-11-21T06:10:46;95177.84;;;2.22;80.30
13041;BME280;6587;42.728;23.288;2023-11-21T06:13:14;95186.28;;;2.16;79.77
13041;BME280;6587;42.728;23.288;2023-11-21T06:15:41;95176.78;;;1.99;79.42
13041;BME280;6587;42.728;23.288;2023-11-21T06:18:08;95181.94;;;1.96;79.39
13041;BME280;6587;42.728;23.288;2023-11-21T06:20:36;95188.59;;;1.93;79.58
13041;BME280;6587;42.728;23.288;2023-11-21T06:23:03;95193.09;;;1.93;79.49
13041;BME280;6587;42.728;23.288;2023-11-21T06:25:32;95194.72;;;2.09;79.58
13041;BME280;6587;42.728;23.288;2023-11-21T06:28:01;95192.06;;;2.21;79.10
13041;BME280;6587;42.728;23.288;2023-11-21T06:30:28;95188.91;;;2.16;79.00
13041;BME280;6587;42.728;23.288;2023-11-21T06:32:55;95190.84;;;2.31;79.14
13041;BME280;6587;42.728;23.288;2023-11-21T06:35:22;95188.69;;;2.21;78.49
13041;BME280;6587;42.728;23.288;2023-11-21T06:37:49;95190.88;;;2.19;77.95
13041;BME280;6587;42.728;23.288;2023-11-21T06:40:17;95203.22;;;2.30;78.07
13041;BME280;6587;42.728;23.288;2023-11-21T06:42:46;95211.94;;;2.46;78.28
13041;BME280;6587;42.728;23.288;2023-11-21T06:45:13;95203.84;;;2.79;77.58
13041;BME280;6587;42.728;23.288;2023-11-21T06:47:40;95206.69;;;2.58;77.34
13041;BME280;6587;42.728;23.288;2023-11-21T06:50:08;95202.16;;;2.59;77.17
13041;BME280;6587;42.728;23.288;2023-11-21T06:52:35;95202.69;;;2.76;77.29
13041;BME280;6587;42.728;23.288;2023-11-21T06:55:02;95209.66;;;2.45;77.04
13041;BME280;6587;42.728;23.288;2023-11-21T06:57:29;95204.63;;;2.40;76.98
13041;BME280;6587;42.728;23.288;2023-11-21T06:59:57;95206.84;;;2.14;78.17
13041;BME280;6587;42.728;23.288;2023-11-21T07:02:24;95208.13;;;2.44;78.12
13041;BME280;6587;42.728;23.288;2023-11-21T07:04:51;95209.06;;;2.63;78.08
13041;BME280;6587;42.728;23.288;2023-11-21T07:07:18;95211.00;;;2.78;77.35
13041;BME280;6587;42.728;23.288;2023-11-21T07:09:45;95202.28;;;2.62;78.11
13041;BME280;6587;42.728;23.288;2023-11-21T07:12:13;95195.41;;;2.85;77.45
13041;BME280;6587;42.728;23.288;2023-11-21T07:14:40;95195.09;;;3.14;76.67
13041;BME280;6587;42.728;23.288;2023-11-21T07:17:11;95201.63;;;3.20;77.29
13041;BME280;6587;42.728;23.288;2023-11-21T07:19:38;95200.97;;;3.39;76.91
13041;BME280;6587;42.728;23.288;2023-11-21T07:22:07;95198.09;;;3.44;75.87
13041;BME280;6587;42.728;23.288;2023-11-21T07:24:34;95194.72;;;3.75;75.69
13041;BME280;6587;42.728;23.288;2023-11-21T07:27:02;95193.53;;;3.88;74.88
13041;BME280;6587;42.728;23.288;2023-11-21T07:29:30;95197.94;;;3.84;74.59
13041;BME280;6587;42.728;23.288;2023-11-21T07:31:58;95210.84;;;3.89;75.60
13041;BME280;6587;42.728;23.288;2023-11-21T07:34:27;95212.38;;;3.90;75.19
13041;BME280;6587;42.728;23.288;2023-11-21T07:36:54;95205.06;;;3.99;75.44
13041;BME280;6587;42.728;23.288;2023-11-21T07:39:21;95202.19;;;4.04;75.09
13041;BME280;6587;42.728;23.288;2023-11-21T07:41:47;95190.59;;;4.24;74.35
13041;BME280;6587;42.728;23.288;2023-11-21T07:44:15;95194.34;;;4.42;74.34
13041;BME280;6587;42.728;23.288;2023-11-21T07:46:43;95191.69;;;4.57;73.71
13041;BME280;6587;42.728;23.288;2023-11-21T07:49:10;95194.84;;;4.82;73.12
13041;BME280;6587;42.728;23.288;2023-11-21T07:51:39;95186.78;;;4.94;72.65
13041;BME280;6587;42.728;23.288;2023-11-21T07:54:05;95182.91;;;4.88;72.60
13041;BME280;6587;42.728;23.288;2023-11-21T07:56:32;95188.28;;;5.14;72.26
13041;BME280;6587;42.728;23.288;2023-11-21T07:58:59;95183.38;;;5.13;71.75
13041;BME280;6587;42.728;23.288;2023-11-21T08:01:26;95182.19;;;5.10;72.20
13041;BME280;6587;42.728;23.288;2023-11-21T08:03:54;95174.41;;;5.17;71.88
13041;BME280;6587;42.728;23.288;2023-11-21T08:06:23;95175.34;;;5.28;71.99
13041;BME280;6587;42.728;23.288;2023-11-21T08:08:52;95177.56;;;5.26;71.14
13041;BME280;6587;42.728;23.288;2023-11-21T08:11:19;95175.06;;;5.33;71.53
13041;BME280;6587;42.728;23.288;2023-11-21T08:13:46;95173.69;;;5.62;70.94
13041;BME280;6587;42.728;23.288;2023-11-21T08:16:13;95181.31;;;5.67;70.54
13041;BME280;6587;42.728;23.288;2023-11-21T08:18:41;95179.72;;;5.62;70.91
13041;BME280;6587;42.728;23.288;2023-11-21T08:21:08;95182.59;;;5.76;70.66
13041;BME280;6587;42.728;23.288;2023-11-21T08:23:34;95172.78;;;5.77;70.72
13041;BME280;6587;42.728;23.288;2023-11-21T08:26:05;95179.41;;;5.86;70.59
13041;BME280;6587;42.728;23.288;2023-11-21T08:28:31;95182.16;;;6.19;70.48
13041;BME280;6587;42.728;23.288;2023-11-21T08:30:58;95186.09;;;6.29;69.41
13041;BME280;6587;42.728;23.288;2023-11-21T08:33:27;95183.16;;;6.34;69.31
13041;BME280;6587;42.728;23.288;2023-11-21T08:35:53;95180.84;;;6.32;68.43
13041;BME280;6587;42.728;23.288;2023-11-21T08:38:20;95177.63;;;6.46;68.95
13041;BME280;6587;42.728;23.288;2023-11-21T08:40:48;95174.09;;;6.65;68.19
13041;BME280;6587;42.728;23.288;2023-11-21T08:43:16;95175.97;;;6.08;68.56
13041;BME280;6587;42.728;23.288;2023-11-21T08:45:45;95174.50;;;6.67;68.58
13041;BME280;6587;42.728;23.288;2023-11-21T08:48:12;95169.56;;;6.95;67.55
13041;BME280;6587;42.728;23.288;2023-11-21T08:50:39;95166.03;;;7.17;67.87
13041;BME280;6587;42.728;23.288;2023-11-21T08:53:06;95159.94;;;7.13;67.05
13041;BME280;6587;42.728;23.288;2023-11-21T08:55:32;95151.16;;;7.42;67.00
13041;BME280;6587;42.728;23.288;2023-11-21T08:58:02;95149.59;;;7.37;65.18
13041;BME280;6587;42.728;23.288;2023-11-21T09:00:32;95144.41;;;7.48;65.92
13041;BME280;6587;42.728;23.288;2023-11-21T09:02:58;95137.09;;;7.81;64.79
13041;BME280;6587;42.728;23.288;2023-11-21T09:05:25;95126.38;;;7.64;64.69
13041;BME280;6587;42.728;23.288;2023-11-21T09:07:52;95119.66;;;7.73;64.95
13041;BME280;6587;42.728;23.288;2023-11-21T09:10:19;95121.16;;;7.74;65.33
13041;BME280;6587;42.728;23.288;2023-11-21T09:12:46;95111.53;;;8.03;64.35
13041;BME280;6587;42.728;23.288;2023-11-21T09:15:13;95100.13;;;7.99;63.75
13041;BME280;6587;42.728;23.288;2023-11-21T09:17:41;95097.72;;;7.80;64.83
13041;BME280;6587;42.728;23.288;2023-11-21T09:20:10;95093.16;;;7.77;65.58
13041;BME280;6587;42.728;23.288;2023-11-21T09:22:37;95084.84;;;7.78;64.26
13041;BME280;6587;42.728;23.288;2023-11-21T09:25:05;95083.88;;;7.97;64.55
13041;BME280;6587;42.728;23.288;2023-11-21T09:27:33;95080.66;;;8.32;63.27
13041;BME280;6587;42.728;23.288;2023-11-21T09:30:01;95058.94;;;8.12;62.45
13041;BME280;6587;42.728;23.288;2023-11-21T09:32:30;95053.44;;;8.35;63.50
13041;BME280;6587;42.728;23.288;2023-11-21T09:34:58;95050.56;;;8.85;62.67
13041;BME280;6587;42.728;23.288;2023-11-21T09:37:27;95051.41;;;9.31;61.65
13041;BME280;6587;42.728;23.288;2023-11-21T09:39:54;95055.97;;;9.52;60.44
13041;BME280;6587;42.728;23.288;2023-11-21T09:42:25;95054.44;;;9.69;59.45
13041;BME280;6587;42.728;23.288;2023-11-21T09:44:59;95031.19;;;10.25;58.94
13041;BME280;6587;42.728;23.288;2023-11-21T09:47:29;95025.47;;;10.27;57.71
13041;BME280;6587;42.728;23.288;2023-11-21T09:49:57;95009.25;;;10.83;57.19
13041;BME280;6587;42.728;23.288;2023-11-21T09:52:30;95003.47;;;10.02;57.13
13041;BME280;6587;42.728;23.288;2023-11-21T09:54:59;94998.63;;;9.58;58.66
13041;BME280;6587;42.728;23.288;2023-11-21T09:57:26;95006.59;;;9.33;57.89
13041;BME280;6587;42.728;23.288;2023-11-21T09:59:57;94993.63;;;9.99;56.86
13041;BME280;6587;42.728;23.288;2023-11-21T10:02:33;94996.50;;;10.50;55.73
13041;BME280;6587;42.728;23.288;2023-11-21T10:05:03;95003.38;;;10.37;55.58
13041;BME280;6587;42.728;23.288;2023-11-21T10:07:34;94995.75;;;10.46;55.66
13041;BME280;6587;42.728;23.288;2023-11-21T10:10:01;94994.44;;;10.78;55.98
13041;BME280;6587;42.728;23.288;2023-11-21T10:12:29;94997.75;;;11.48;53.69
13041;BME280;6587;42.728;23.288;2023-11-21T10:14:58;94986.38;;;10.89;53.67
13041;BME280;6587;42.728;23.288;2023-11-21T10:17:27;94981.16;;;11.26;53.93
13041;BME280;6587;42.728;23.288;2023-11-21T10:19:56;94979.66;;;10.67;54.64
13041;BME280;6587;42.728;23.288;2023-11-21T10:22:24;94967.81;;;11.33;52.85
13041;BME280;6587;42.728;23.288;2023-11-21T10:24:52;94965.84;;;11.37;53.12
13041;BME280;6587;42.728;23.288;2023-11-21T10:27:19;94978.19;;;11.21;53.87
13041;BME280;6587;42.728;23.288;2023-11-21T10:29:46;94956.09;;;11.20;54.06
13041;BME280;6587;42.728;23.288;2023-11-21T10:32:13;94957.16;;;11.33;53.90
13041;BME280;6587;42.728;23.288;2023-11-21T10:34:40;94962.19;;;10.66;54.24
13041;BME280;6587;42.728;23.288;2023-11-21T10:37:11;94965.88;;;10.00;56.09
13041;BME280;6587;42.728;23.288;2023-11-21T10:39:39;94951.81;;;9.99;57.05
13041;BME280;6587;42.728;23.288;2023-11-21T10:42:09;94946.72;;;10.40;56.16
13041;BME280;6587;42.728;23.288;2023-11-21T10:44:36;94954.75;;;10.36;55.21
13041;BME280;6587;42.728;23.288;2023-11-21T10:47:03;94948.03;;;9.97;56.26
13041;BME280;6587;42.728;23.288;2023-11-21T10:49:30;94935.91;;;9.96;56.35
13041;BME280;6587;42.728;23.288;2023-11-21T10:51:57;94931.31;;;10.03;56.20
13041;BME280;6587;42.728;23.288;2023-11-21T10:54:25;94938.22;;;9.73;56.34
13041;BME280;6587;42.728;23.288;2023-11-21T10:56:56;94924.59;;;9.71;57.48
13041;BME280;6587;42.728;23.288;2023-11-21T10:59:28;94925.38;;;9.50;57.68
13041;BME280;6587;42.728;23.288;2023-11-21T11:01:57;94932.56;;;9.71;57.61
13041;BME280;6587;42.728;23.288;2023-11-21T11:04:27;94919.97;;;9.85;57.50
13041;BME280;6587;42.728;23.288;2023-11-21T11:06:57;94918.84;;;9.83;57.35
13041;BME280;6587;42.728;23.288;2023-11-21T11:09:26;94913.84;;;9.99;58.13
13041;BME280;6587;42.728;23.288;2023-11-21T11:11:53;94909.25;;;10.03;57.57
13041;BME280;6587;42.728;23.288;2023-11-21T11:14:20;94909.31;;;9.96;56.76
13041;BME280;6587;42.728;23.288;2023-11-21T11:16:53;94899.06;;;9.91;56.79
13041;BME280;6587;42.728;23.288;2023-11-21T11:19:21;94899.03;;;10.08;57.91
13041;BME280;6587;42.728;23.288;2023-11-21T11:21:56;94890.22;;;10.22;57.52
13041;BME280;6587;42.728;23.288;2023-11-21T11:24:36;94897.84;;;10.13;56.76
13041;BME280;6587;42.728;23.288;2023-11-21T11:27:14;94888.16;;;9.61;57.94
13041;BME280;6587;42.728;23.288;2023-11-21T11:29:50;94884.28;;;9.90;57.67
13041;BME280;6587;42.728;23.288;2023-11-21T11:32:31;94883.50;;;9.93;57.30
13041;BME280;6587;42.728;23.288;2023-11-21T11:35:06;94877.03;;;9.90;57.71
13041;BME280;6587;42.728;23.288;2023-11-21T11:37:37;94872.16;;;9.78;56.83
13041;BME280;6587;42.728;23.288;2023-11-21T11:40:06;94874.41;;;9.83;58.39
13041;BME280;6587;42.728;23.288;2023-11-21T11:42:34;94893.41;;;9.78;57.48
13041;BME280;6587;42.728;23.288;2023-11-21T11:45:01;94898.75;;;9.71;57.85
13041;BME280;6587;42.728;23.288;2023-11-21T11:47:31;94900.00;;;9.07;59.57
13041;BME280;6587;42.728;23.288;2023-11-21T11:50:06;94896.56;;;9.38;60.20
13041;BME280;6587;42.728;23.288;2023-11-21T11:52:40;94902.66;;;9.21;60.10
13041;BME280;6587;42.728;23.288;2023-11-21T11:55:08;94891.28;;;9.13;60.46
13041;BME280;6587;42.728;23.288;2023-11-21T11:57:37;94892.81;;;9.14;61.29
13041;BME280;6587;42.728;23.288;2023-11-21T12:00:09;94881.44;;;9.17;62.96
13041;BME280;6587;42.728;23.288;2023-11-21T12:02:39;94888.25;;;9.04;63.86
13041;BME280;6587;42.728;23.288;2023-11-21T12:05:10;94890.56;;;8.95;64.04
13041;BME280;6587;42.728;23.288;2023-11-21T12:07:49;94897.75;;;8.74;65.18
13041;BME280;6587;42.728;23.288;2023-11-21T12:10:20;94896.63;;;8.75;66.44
13041;BME280;6587;42.728;23.288;2023-11-21T12:12:51;94895.09;;;8.56;68.32
13041;BME280;6587;42.728;23.288;2023-11-21T12:15:19;94896.59;;;8.57;68.52
13041;BME280;6587;42.728;23.288;2023-11-21T12:17:49;94888.66;;;8.78;68.44
13041;BME280;6587;42.728;23.288;2023-11-21T12:20:19;94888.28;;;8.76;69.21
13041;BME280;6587;42.728;23.288;2023-11-21T12:22:47;94886.72;;;8.51;70.38
13041;BME280;6587;42.728;23.288;2023-11-21T12:25:15;94877.25;;;8.43;70.19
13041;BME280;6587;42.728;23.288;2023-11-21T12:27:45;94878.41;;;8.49;70.77
13041;BME280;6587;42.728;23.288;2023-11-21T12:30:13;94870.81;;;8.47;70.45
13041;BME280;6587;42.728;23.288;2023-11-21T12:32:41;94879.03;;;8.07;73.05
13041;BME280;6587;42.728;23.288;2023-11-21T12:35:10;94874.47;;;7.90;73.92
13041;BME280;6587;42.728;23.288;2023-11-21T12:37:37;94869.09;;;7.76;73.17
13041;BME280;6587;42.728;23.288;2023-11-21T12:40:07;94877.16;;;8.08;73.47
13041;BME280;6587;42.728;23.288;2023-11-21T12:42:37;94865.41;;;7.98;73.90
13041;BME280;6587;42.728;23.288;2023-11-21T12:45:10;94868.75;;;7.88;73.47
13041;BME280;6587;42.728;23.288;2023-11-21T12:47:46;94854.78;;;8.05;73.23
13041;BME280;6587;42.728;23.288;2023-11-21T12:50:15;94857.06;;;7.99;73.78
13041;BME280;6587;42.728;23.288;2023-11-21T12:52:43;94849.38;;;7.63;75.72
13041;BME280;6587;42.728;23.288;2023-11-21T12:55:15;94853.50;;;7.50;76.08
13041;BME280;6587;42.728;23.288;2023-11-21T12:57:45;94850.84;;;7.50;76.99
13041;BME280;6587;42.728;23.288;2023-11-21T13:00:13;94847.22;;;7.93;75.83
13041;BME280;6587;42.728;23.288;2023-11-21T13:02:54;94835.03;;;7.81;75.54
13041;BME280;6587;42.728;23.288;2023-11-21T13:05:29;94835.84;;;7.85;75.30
13041;BME280;6587;42.728;23.288;2023-11-21T13:07:57;94839.28;;;8.03;75.11
13041;BME280;6587;42.728;23.288;2023-11-21T13:10:26;94834.00;;;8.14;74.26
13041;BME280;6587;42.728;23.288;2023-11-21T13:12:57;94841.56;;;8.09;74.36
13041;BME280;6587;42.728;23.288;2023-11-21T13:15:26;94847.97;;;7.90;74.95